Kingsland, Texas
Current Conditions -  °F | °C
As of 4:35 PM on Tuesday 21 Oct 2014 (Local Time) from KDZB Reporting Station
Clear Clear  
Wind Chill: 80°   Ceiling: Unl
Heat Index: 80°   Visibility: 10mi
Dew Point: 49°   Wind: 6mph
Humidity: 34%   Direction: 140°SE
Pressure: 30.01"   Gusts: NA
Location:  30.66°N, 98.44°W
Report Text: KDZB 212135Z AUTO 14005KT 10SM CLR 27/10 A3001 RMK AO2 T02690097
Loading
Personal Weather Stations






























Interactive Weather Map
Tropical Storm Tracking
New forecast layout! Learn more

10-Day Weather Forecast

Advertisements
Track Severe Weather on mobile